createdAt,value
2023-01-17T00:01:14.891Z,95502.72
2023-01-17T00:04:00.021Z,95510.59
2023-01-17T00:06:45.271Z,95502.09
2023-01-17T00:09:31.294Z,95519.09
2023-01-17T00:11:58.890Z,95523.69
2023-01-17T00:14:27.382Z,95527.25
2023-01-17T00:16:54.523Z,95528.75
2023-01-17T00:19:39.841Z,95539.34
2023-01-17T00:22:40.943Z,95536.41
2023-01-17T00:25:31.091Z,95536.41
2023-01-17T00:27:57.840Z,95537.72
2023-01-17T00:30:24.999Z,95549.31
2023-01-17T00:32:51.609Z,95546.06
2023-01-17T00:35:19.924Z,95565.19
2023-01-17T00:37:46.464Z,95555.69
2023-01-17T00:40:13.283Z,95566.97
2023-01-17T00:42:39.911Z,95565.19
2023-01-17T00:45:25.470Z,95562.41
2023-01-17T00:48:10.326Z,95580.88
2023-01-17T00:50:56.461Z,95576.59
2023-01-17T00:53:41.880Z,95574.97
2023-01-17T00:56:27.012Z,95590.00
2023-01-17T00:59:12.787Z,95590.97
2023-01-17T01:01:58.165Z,95591.47
2023-01-17T01:04:43.647Z,95599.66
2023-01-17T01:07:29.119Z,95600.78
2023-01-17T01:10:14.533Z,95602.91
2023-01-17T01:12:59.956Z,95611.22
2023-01-17T01:15:45.127Z,95614.84
2023-01-17T01:18:30.401Z,95625.59
2023-01-17T01:21:20.902Z,95628.53
2023-01-17T01:24:06.136Z,95629.53
2023-01-17T01:26:51.606Z,95636.34
2023-01-17T01:29:37.127Z,95635.72
2023-01-17T01:32:22.403Z,95634.25
2023-01-17T01:34:49.086Z,95644.56
2023-01-17T01:37:15.795Z,95643.41
2023-01-17T01:39:42.439Z,95642.59
2023-01-17T01:42:15.419Z,95635.13
2023-01-17T01:44:47.691Z,95634.28
2023-01-17T01:47:25.821Z,95642.78
2023-01-17T01:49:52.885Z,95649.78
2023-01-17T01:52:23.973Z,95652.41
2023-01-17T01:54:57.790Z,95646.88
2023-01-17T01:57:29.651Z,95652.91
2023-01-17T02:00:02.273Z,95649.81
2023-01-17T02:02:31.433Z,95643.28
2023-01-17T02:04:59.470Z,95651.75
2023-01-17T02:07:33.329Z,95656.34
2023-01-17T02:10:00.737Z,95640.66
2023-01-17T02:12:27.756Z,95667.44
2023-01-17T02:14:54.454Z,95650.63
2023-01-17T02:17:30.018Z,95661.25
2023-01-17T02:20:09.129Z,95668.13
2023-01-17T02:22:54.198Z,95674.16
2023-01-17T02:25:35.959Z,95682.16
2023-01-17T02:28:34.777Z,95684.78
2023-01-17T02:31:27.454Z,95689.19
2023-01-17T02:34:43.516Z,95683.31
2023-01-17T02:37:34.978Z,95699.97
2023-01-17T02:40:12.381Z,95697.22
2023-01-17T02:42:45.582Z,95699.16
2023-01-17T02:45:19.554Z,95701.63
2023-01-17T02:47:46.502Z,95706.50
2023-01-17T02:50:18.258Z,95697.38
2023-01-17T02:52:44.874Z,95704.22
2023-01-17T02:55:26.570Z,95691.97
2023-01-17T02:57:59.101Z,95694.25
2023-01-17T03:00:41.966Z,95687.88
2023-01-17T03:03:14.564Z,95692.78
2023-01-17T03:06:11.636Z,95702.75
2023-01-17T03:08:46.008Z,95697.50
2023-01-17T03:11:13.671Z,95708.66
2023-01-17T03:13:41.297Z,95717.66
2023-01-17T03:16:19.808Z,95716.97
2023-01-17T03:18:46.605Z,95721.91
2023-01-17T03:21:13.522Z,95721.38
2023-01-17T03:23:40.277Z,95717.78
2023-01-17T03:26:07.327Z,95723.03
2023-01-17T03:28:34.167Z,95729.25
2023-01-17T03:31:01.159Z,95731.22
2023-01-17T03:33:27.937Z,95741.66
2023-01-17T03:35:58.097Z,95743.47
2023-01-17T03:38:30.507Z,95748.03
2023-01-17T03:40:57.193Z,95751.81
2023-01-17T03:43:23.953Z,95754.44
2023-01-17T03:45:54.233Z,95765.53
2023-01-17T03:48:21.798Z,95759.31
2023-01-17T03:50:51.640Z,95759.31
2023-01-17T03:53:18.375Z,95765.69
2023-01-17T03:55:48.291Z,95776.13
2023-01-17T03:58:16.397Z,95777.25
2023-01-17T04:00:43.693Z,95785.78
2023-01-17T04:03:10.966Z,95781.22
2023-01-17T04:05:37.620Z,95789.34
2023-01-17T04:08:04.531Z,95795.25
2023-01-17T04:10:31.180Z,95798.84
2023-01-17T04:12:57.789Z,95810.59
2023-01-17T04:15:24.429Z,95807.81
2023-01-17T04:17:51.296Z,95811.56
2023-01-17T04:20:29.597Z,95808.13
2023-01-17T04:22:56.344Z,95814.47
2023-01-17T04:25:23.145Z,95825.75
2023-01-17T04:27:49.852Z,95835.91
2023-01-17T04:30:16.621Z,95826.09
2023-01-17T04:32:43.330Z,95823.97
2023-01-17T04:35:10.295Z,95836.91
2023-01-17T04:37:37.597Z,95839.00
2023-01-17T04:40:05.888Z,95824.59
2023-01-17T04:42:32.729Z,95827.88
2023-01-17T04:44:59.403Z,95833.25
2023-01-17T04:47:26.051Z,95835.31
2023-01-17T04:49:53.696Z,95853.13
2023-01-17T04:52:21.123Z,95846.44
2023-01-17T04:54:49.577Z,95870.41
2023-01-17T04:57:17.509Z,95877.75
2023-01-17T04:59:44.950Z,95861.44
2023-01-17T05:02:12.057Z,95867.97
2023-01-17T05:04:38.882Z,95875.19
2023-01-17T05:07:06.261Z,95890.69
2023-01-17T05:09:33.142Z,95888.56
2023-01-17T05:11:59.860Z,95900.59
2023-01-17T05:14:27.148Z,95903.38
2023-01-17T05:16:54.525Z,95904.03
2023-01-17T05:19:21.785Z,95920.53
2023-01-17T05:21:48.451Z,95932.69
2023-01-17T05:24:15.371Z,95918.53
2023-01-17T05:26:43.286Z,95925.69
2023-01-17T05:29:10.766Z,95932.03
2023-01-17T05:31:37.764Z,95937.50
2023-01-17T05:34:05.038Z,95944.44
2023-01-17T05:36:31.742Z,95946.16
2023-01-17T05:38:58.456Z,95943.00
2023-01-17T05:41:25.136Z,95945.63
2023-01-17T05:43:51.807Z,95944.81
2023-01-17T05:46:18.694Z,95947.72
2023-01-17T05:48:45.426Z,95953.38
2023-01-17T05:51:12.170Z,95947.13
2023-01-17T05:53:38.868Z,95959.66
2023-01-17T05:56:05.778Z,95948.38
2023-01-17T05:58:32.438Z,95951.72
2023-01-17T06:00:59.187Z,95952.41
2023-01-17T06:03:26.034Z,95960.16
2023-01-17T06:05:52.675Z,95966.06
2023-01-17T06:08:19.349Z,95975.53
2023-01-17T06:10:46.037Z,95967.56
2023-01-17T06:13:15.426Z,95970.59
2023-01-17T06:15:42.442Z,95976.72
2023-01-17T06:18:12.926Z,95987.44
2023-01-17T06:20:40.401Z,95988.97
2023-01-17T06:23:10.466Z,95978.84
2023-01-17T06:25:39.045Z,95977.34
2023-01-17T06:28:08.756Z,95982.03
2023-01-17T06:30:36.129Z,95979.44
2023-01-17T06:33:03.497Z,95980.97
2023-01-17T06:35:30.947Z,95981.94
2023-01-17T06:37:59.814Z,95984.53
2023-01-17T06:40:28.092Z,95987.69
2023-01-17T06:42:55.069Z,95982.88
2023-01-17T06:45:21.820Z,95997.19
2023-01-17T06:47:48.485Z,95985.13
2023-01-17T06:50:15.994Z,95993.91
2023-01-17T06:52:43.254Z,95994.72
2023-01-17T06:55:10.452Z,95985.13
2023-01-17T06:57:37.234Z,96002.41
2023-01-17T07:00:04.817Z,96006.00
2023-01-17T07:02:31.634Z,96016.28
2023-01-17T07:04:58.299Z,96031.13
2023-01-17T07:07:25.054Z,96019.72
2023-01-17T07:09:51.778Z,96027.56
2023-01-17T07:12:18.471Z,96044.16
2023-01-17T07:14:45.191Z,96034.25
2023-01-17T07:17:11.893Z,96034.25
2023-01-17T07:19:38.591Z,96047.84
2023-01-17T07:22:05.350Z,96049.78
2023-01-17T07:24:32.925Z,96055.69
2023-01-17T07:26:59.683Z,96056.50
2023-01-17T07:29:36.980Z,96064.84
2023-01-17T07:32:04.218Z,96058.69
2023-01-17T07:34:30.977Z,96062.94
2023-01-17T07:36:57.893Z,96058.09
2023-01-17T07:39:24.563Z,96068.84
2023-01-17T07:41:51.295Z,96078.59
2023-01-17T07:44:18.161Z,96071.16
2023-01-17T07:46:44.836Z,96080.63
2023-01-17T07:49:11.600Z,96072.50
2023-01-17T07:51:38.385Z,96086.28
2023-01-17T07:54:05.153Z,96079.28
2023-01-17T07:56:34.196Z,96080.63
2023-01-17T07:59:01.814Z,96091.75
2023-01-17T08:01:28.687Z,96092.72
2023-01-17T08:03:55.473Z,96086.81
2023-01-17T08:06:26.181Z,96093.25
2023-01-17T08:08:55.212Z,96090.94
2023-01-17T08:11:22.094Z,96100.81
2023-01-17T08:13:48.899Z,96094.63
2023-01-17T08:16:15.767Z,96101.50
2023-01-17T08:18:42.478Z,96104.13
2023-01-17T08:21:16.909Z,96094.13
2023-01-17T08:23:47.335Z,96112.22
2023-01-17T08:26:21.384Z,96108.38
2023-01-17T08:28:56.991Z,96106.16
2023-01-17T08:31:24.647Z,96114.56
2023-01-17T08:33:51.446Z,96125.28
2023-01-17T08:36:18.165Z,96121.03
2023-01-17T08:38:44.992Z,96125.28
2023-01-17T08:41:13.065Z,96121.69
2023-01-17T08:43:39.802Z,96123.34
2023-01-17T08:46:06.587Z,96124.88
2023-01-17T08:48:33.356Z,96130.34
2023-01-17T08:51:03.619Z,96124.44
2023-01-17T08:53:30.585Z,96130.66
2023-01-17T08:55:59.082Z,96139.44
2023-01-17T08:58:30.271Z,96141.06
2023-01-17T09:01:06.227Z,96133.09
2023-01-17T09:03:34.700Z,96146.97
2023-01-17T09:06:10.276Z,96140.78
2023-01-17T09:08:37.007Z,96140.22
2023-01-17T09:11:12.596Z,96143.22
2023-01-17T09:13:40.008Z,96160.66
2023-01-17T09:16:07.783Z,96153.66
2023-01-17T09:18:36.269Z,96155.31
2023-01-17T09:21:15.060Z,96159.78
2023-01-17T09:23:42.865Z,96160.47
2023-01-17T09:26:22.184Z,96159.97
2023-01-17T09:28:48.928Z,96162.00
2023-01-17T09:31:17.571Z,96159.66
2023-01-17T09:33:44.896Z,96168.72
2023-01-17T09:36:11.664Z,96158.81
2023-01-17T09:38:40.266Z,96161.69
2023-01-17T09:41:33.112Z,96158.63
2023-01-17T09:44:18.381Z,96161.00
2023-01-17T09:46:48.067Z,96159.47
2023-01-17T09:49:48.022Z,96156.19
2023-01-17T09:52:23.862Z,96158.06
2023-01-17T09:54:51.694Z,96162.69
2023-01-17T09:57:42.958Z,96157.88
2023-01-17T10:00:31.862Z,96161.03
2023-01-17T10:03:23.826Z,96165.69
2023-01-17T10:05:58.328Z,96168.97
2023-01-17T10:08:59.249Z,96161.50
2023-01-17T10:11:42.424Z,96167.16
2023-01-17T10:14:33.370Z,96163.31
2023-01-17T10:17:32.230Z,96171.09
2023-01-17T10:20:17.907Z,96167.22
2023-01-17T10:23:25.287Z,96164.63
2023-01-17T10:25:54.725Z,96161.44
2023-01-17T10:28:27.749Z,96149.75
2023-01-17T10:31:13.033Z,96146.53
2023-01-17T10:33:46.587Z,96140.72
2023-01-17T10:36:40.346Z,96131.03
2023-01-17T10:39:20.560Z,96126.75
2023-01-17T10:41:58.194Z,96126.03
2023-01-17T10:44:36.990Z,96118.56
2023-01-17T10:47:24.133Z,96122.09
2023-01-17T10:49:58.529Z,96115.34
2023-01-17T10:52:37.681Z,96121.34
2023-01-17T10:55:39.264Z,96116.84
2023-01-17T10:58:11.374Z,96125.00
2023-01-17T11:00:54.148Z,96134.19
2023-01-17T11:03:21.166Z,96132.63
2023-01-17T11:06:19.074Z,96129.06
2023-01-17T11:09:00.124Z,96132.09
2023-01-17T11:11:36.319Z,96123.84
2023-01-17T11:14:16.991Z,96121.81
2023-01-17T11:16:44.031Z,96126.03
2023-01-17T11:19:10.669Z,96124.84
2023-01-17T11:21:39.887Z,96126.44
2023-01-17T11:24:12.293Z,96124.59
2023-01-17T11:26:48.675Z,96129.72
2023-01-17T11:29:27.487Z,96126.94
2023-01-17T11:31:56.339Z,96126.66
2023-01-17T11:34:32.123Z,96126.81
2023-01-17T11:37:17.303Z,96131.63
2023-01-17T11:39:48.114Z,96128.97
2023-01-17T11:42:35.213Z,96130.66
2023-01-17T11:45:28.351Z,96140.75
2023-01-17T11:48:11.712Z,96145.28
2023-01-17T11:50:58.689Z,96136.00
2023-01-17T11:53:32.368Z,96143.56
2023-01-17T11:56:09.394Z,96149.13
2023-01-17T11:58:39.400Z,96152.22
2023-01-17T12:01:29.082Z,96146.16
2023-01-17T12:04:01.918Z,96153.19
2023-01-17T12:06:44.770Z,96152.53
2023-01-17T12:09:45.208Z,96155.88
2023-01-17T12:12:59.874Z,96160.91
2023-01-17T12:15:32.433Z,96161.69
2023-01-17T12:18:17.384Z,96164.81
2023-01-17T12:20:53.243Z,96159.06
2023-01-17T12:23:47.489Z,96148.06
2023-01-17T12:26:19.755Z,96157.66
2023-01-17T12:29:18.561Z,96158.28
2023-01-17T12:32:04.172Z,96161.91
2023-01-17T12:34:39.018Z,96160.78
2023-01-17T12:37:08.322Z,96158.47
2023-01-17T12:39:44.476Z,96158.09
2023-01-17T12:42:26.095Z,96155.25
2023-01-17T12:45:09.937Z,96165.34
2023-01-17T12:47:47.944Z,96164.38
2023-01-17T12:50:29.398Z,96160.78
2023-01-17T12:53:10.691Z,96165.13
2023-01-17T12:55:49.922Z,96163.91
2023-01-17T12:58:22.730Z,96158.69
2023-01-17T13:00:59.524Z,96153.34
2023-01-17T13:03:57.799Z,96148.50
2023-01-17T13:06:54.106Z,96147.69
2023-01-17T13:09:23.476Z,96157.94
2023-01-17T13:11:57.683Z,96144.31
2023-01-17T13:14:24.865Z,96146.47
2023-01-17T13:16:59.778Z,96143.34
2023-01-17T13:19:41.626Z,96133.72
2023-01-17T13:22:17.679Z,96132.97
2023-01-17T13:24:49.985Z,96138.47
2023-01-17T13:27:35.262Z,96149.63
2023-01-17T13:30:22.149Z,96149.00
2023-01-17T13:32:58.055Z,96152.16
2023-01-17T13:35:33.566Z,96146.81
2023-01-17T13:38:27.482Z,96148.44
2023-01-17T13:41:07.106Z,96140.09
2023-01-17T13:43:38.238Z,96136.31
2023-01-17T13:46:06.745Z,96133.84
2023-01-17T13:48:33.447Z,96141.53
2023-01-17T13:51:03.917Z,96142.38
2023-01-17T13:53:39.633Z,96139.56
2023-01-17T13:56:30.239Z,96141.75
2023-01-17T13:59:02.909Z,96134.53
2023-01-17T14:01:34.755Z,96138.13
2023-01-17T14:04:04.263Z,96136.81
2023-01-17T14:06:36.406Z,96139.91
2023-01-17T14:09:06.032Z,96142.38
2023-01-17T14:11:37.255Z,96142.31
2023-01-17T14:14:34.856Z,96141.50
2023-01-17T14:17:26.611Z,96139.59
2023-01-17T14:19:57.435Z,96146.25
2023-01-17T14:22:27.364Z,96144.59
2023-01-17T14:25:11.814Z,96149.34
2023-01-17T14:27:55.004Z,96150.56
2023-01-17T14:30:22.475Z,96156.81
2023-01-17T14:33:01.513Z,96153.97
2023-01-17T14:35:32.646Z,96159.81
2023-01-17T14:38:03.064Z,96153.50
2023-01-17T14:40:32.929Z,96159.00
2023-01-17T14:43:16.222Z,96155.28
2023-01-17T14:45:43.703Z,96156.31
2023-01-17T14:48:22.552Z,96165.38
2023-01-17T14:50:52.258Z,96153.22
2023-01-17T14:53:28.191Z,96152.03
2023-01-17T14:55:56.814Z,96151.72
2023-01-17T14:58:34.708Z,96141.22
2023-01-17T15:01:05.319Z,96145.34
2023-01-17T15:03:42.019Z,96137.94
2023-01-17T15:06:18.283Z,96143.50
2023-01-17T15:08:45.589Z,96163.69
2023-01-17T15:11:25.850Z,96156.00
2023-01-17T15:13:57.529Z,96162.88
2023-01-17T15:16:25.881Z,96160.41
2023-01-17T15:18:54.032Z,96158.69
2023-01-17T15:21:27.316Z,96156.84
2023-01-17T15:24:03.763Z,96152.56
2023-01-17T15:26:37.262Z,96150.63
2023-01-17T15:29:12.479Z,96145.84
2023-01-17T15:31:42.791Z,96145.63
2023-01-17T15:34:27.317Z,96156.44
2023-01-17T15:36:58.070Z,96163.66
2023-01-17T15:39:30.383Z,96163.28
2023-01-17T15:41:59.708Z,96164.25
2023-01-17T15:44:31.122Z,96161.53
2023-01-17T15:47:04.146Z,96151.69
2023-01-17T15:49:31.300Z,96150.13
2023-01-17T15:52:15.311Z,96149.88
2023-01-17T15:54:56.042Z,96150.75
2023-01-17T15:57:37.198Z,96147.31
2023-01-17T16:00:09.896Z,96143.72
2023-01-17T16:02:36.652Z,96143.97
2023-01-17T16:05:23.506Z,96149.69
2023-01-17T16:08:02.803Z,96147.31
2023-01-17T16:10:32.014Z,96151.28
2023-01-17T16:12:59.657Z,96149.25
2023-01-17T16:15:27.378Z,96155.72
2023-01-17T16:18:32.393Z,96152.19
2023-01-17T16:21:19.453Z,96159.38
2023-01-17T16:23:58.934Z,96158.44
2023-01-17T16:26:25.755Z,96159.00
2023-01-17T16:28:52.518Z,96162.22
2023-01-17T16:31:19.311Z,96157.97
2023-01-17T16:33:48.920Z,96160.06
2023-01-17T16:36:16.853Z,96150.88
2023-01-17T16:38:49.660Z,96154.56
2023-01-17T16:41:16.363Z,96163.66
2023-01-17T16:43:43.124Z,96162.84
2023-01-17T16:46:11.575Z,96152.13
2023-01-17T16:48:38.325Z,96151.19
2023-01-17T16:51:06.611Z,96153.53
2023-01-17T16:53:33.319Z,96156.38
2023-01-17T16:56:07.644Z,96154.06
2023-01-17T16:58:34.402Z,96154.63
2023-01-17T17:01:01.109Z,96150.06
2023-01-17T17:03:27.863Z,96158.16
2023-01-17T17:05:56.850Z,96161.72
2023-01-17T17:08:24.294Z,96159.63
2023-01-17T17:10:51.162Z,96155.38
2023-01-17T17:13:18.061Z,96152.88
2023-01-17T17:15:45.000Z,96152.59
2023-01-17T17:18:16.563Z,96160.94
2023-01-17T17:20:43.674Z,96166.91
2023-01-17T17:23:10.665Z,96165.38
2023-01-17T17:25:38.353Z,96166.19
2023-01-17T17:28:06.296Z,96170.38
2023-01-17T17:30:33.539Z,96176.81
2023-01-17T17:33:00.409Z,96180.63
2023-01-17T17:35:27.330Z,96179.22
2023-01-17T17:37:54.501Z,96178.41
2023-01-17T17:40:21.320Z,96189.75
2023-01-17T17:42:47.915Z,96193.47
2023-01-17T17:45:14.668Z,96192.31
2023-01-17T17:47:41.330Z,96203.13
2023-01-17T17:50:08.862Z,96200.88
2023-01-17T17:52:35.632Z,96203.75
2023-01-17T17:55:02.556Z,96206.75
2023-01-17T17:57:29.193Z,96216.13
2023-01-17T17:59:56.877Z,96220.03
2023-01-17T18:02:23.586Z,96225.47
2023-01-17T18:04:50.349Z,96236.72
2023-01-17T18:07:17.111Z,96239.47
2023-01-17T18:09:43.889Z,96247.38
2023-01-17T18:12:10.659Z,96250.59
2023-01-17T18:14:37.501Z,96252.63
2023-01-17T18:17:04.102Z,96253.94
2023-01-17T18:19:30.759Z,96257.59
2023-01-17T18:21:58.210Z,96255.38
2023-01-17T18:24:26.940Z,96261.53
2023-01-17T18:26:56.977Z,96262.59
2023-01-17T18:29:24.784Z,96261.91
2023-01-17T18:31:52.685Z,96260.38
2023-01-17T18:34:23.928Z,96262.38
2023-01-17T18:36:51.988Z,96271.34
2023-01-17T18:39:25.291Z,96267.00
2023-01-17T18:41:53.963Z,96274.66
2023-01-17T18:44:22.321Z,96271.13
2023-01-17T18:46:50.413Z,96262.13
2023-01-17T18:49:19.307Z,96266.16
2023-01-17T18:51:50.737Z,96254.25
2023-01-17T18:54:19.213Z,96263.00
2023-01-17T18:56:46.062Z,96263.09
2023-01-17T18:59:14.095Z,96253.91
2023-01-17T19:01:44.604Z,96267.41
2023-01-17T19:04:13.853Z,96265.13
2023-01-17T19:06:42.974Z,96263.63
2023-01-17T19:09:11.801Z,96261.25
2023-01-17T19:11:38.750Z,96255.47
2023-01-17T19:14:06.951Z,96258.19
2023-01-17T19:16:36.520Z,96259.72
2023-01-17T19:19:05.661Z,96270.38
2023-01-17T19:21:32.548Z,96261.75
2023-01-17T19:23:59.951Z,96261.03
2023-01-17T19:26:27.615Z,96267.31
2023-01-17T19:29:05.268Z,96262.94
2023-01-17T19:31:35.740Z,96263.78
2023-01-17T19:34:02.500Z,96269.53
2023-01-17T19:36:34.509Z,96265.28
2023-01-17T19:39:05.316Z,96269.28
2023-01-17T19:41:35.317Z,96265.19
2023-01-17T19:44:10.430Z,96270.59
2023-01-17T19:46:38.585Z,96268.63
2023-01-17T19:49:07.510Z,96267.91
2023-01-17T19:51:34.513Z,96262.94
2023-01-17T19:54:01.849Z,96269.31
2023-01-17T19:56:29.738Z,96270.34
2023-01-17T19:59:00.879Z,96274.25
2023-01-17T20:01:30.268Z,96278.97
2023-01-17T20:03:58.631Z,96284.06
2023-01-17T20:06:29.048Z,96293.13
2023-01-17T20:08:59.316Z,96302.06
2023-01-17T20:11:27.253Z,96291.47
2023-01-17T20:13:56.223Z,96303.53
2023-01-17T20:16:24.629Z,96308.22
2023-01-17T20:18:51.856Z,96301.75
2023-01-17T20:21:21.558Z,96307.97
2023-01-17T20:23:50.310Z,96313.16
2023-01-17T20:26:20.411Z,96309.16
2023-01-17T20:28:48.905Z,96315.16
2023-01-17T20:31:18.291Z,96322.13
2023-01-17T20:33:47.081Z,96325.03
2023-01-17T20:36:16.086Z,96324.94
2023-01-17T20:38:44.171Z,96328.84
2023-01-17T20:41:19.674Z,96330.59
2023-01-17T20:43:48.689Z,96335.78
2023-01-17T20:46:16.879Z,96345.69
2023-01-17T20:48:45.546Z,96347.25
2023-01-17T20:51:13.511Z,96350.88
2023-01-17T20:53:44.671Z,96348.53
2023-01-17T20:56:13.843Z,96362.53
2023-01-17T20:58:41.226Z,96350.41
2023-01-17T21:01:09.986Z,96361.50
2023-01-17T21:03:38.240Z,96357.94
2023-01-17T21:06:11.570Z,96359.84
2023-01-17T21:08:41.201Z,96367.00
2023-01-17T21:11:10.566Z,96373.03
2023-01-17T21:13:37.135Z,96368.06
2023-01-17T21:16:03.999Z,96366.63
2023-01-17T21:18:32.024Z,96368.00
2023-01-17T21:21:08.017Z,96366.69
2023-01-17T21:23:36.178Z,96364.44
2023-01-17T21:26:03.840Z,96367.97
2023-01-17T21:28:33.026Z,96368.22
2023-01-17T21:31:00.123Z,96374.44
2023-01-17T21:33:29.347Z,96377.03
2023-01-17T21:36:07.813Z,96368.06
2023-01-17T21:38:34.506Z,96367.03
2023-01-17T21:41:01.232Z,96375.44
2023-01-17T21:43:31.261Z,96372.31
2023-01-17T21:46:04.839Z,96379.41
2023-01-17T21:48:31.698Z,96370.47
2023-01-17T21:51:06.193Z,96381.56
2023-01-17T21:53:35.023Z,96388.91
2023-01-17T21:56:25.204Z,96385.88
2023-01-17T21:58:54.945Z,96390.09
2023-01-17T22:01:24.215Z,96374.03
2023-01-17T22:03:52.196Z,96382.75
2023-01-17T22:06:21.268Z,96378.53
2023-01-17T22:08:48.524Z,96380.06
2023-01-17T22:11:19.063Z,96379.97
2023-01-17T22:13:46.568Z,96382.56
2023-01-17T22:16:19.391Z,96387.75
2023-01-17T22:18:46.713Z,96389.16
2023-01-17T22:21:17.511Z,96390.09
2023-01-17T22:23:53.039Z,96387.75
2023-01-17T22:26:36.523Z,96385.34
2023-01-17T22:29:20.112Z,96388.00
2023-01-17T22:31:56.995Z,96376.19
2023-01-17T22:34:23.953Z,96382.53
2023-01-17T22:37:12.113Z,96378.50
2023-01-17T22:39:57.457Z,96369.78
2023-01-17T22:43:16.789Z,96367.94
2023-01-17T22:45:47.220Z,96363.34
2023-01-17T22:48:13.891Z,96367.88
2023-01-17T22:50:40.510Z,96361.75
2023-01-17T22:53:07.247Z,96355.84
2023-01-17T22:55:33.968Z,96361.03
2023-01-17T22:58:01.215Z,96356.44
2023-01-17T23:00:27.795Z,96348.41
2023-01-17T23:02:54.538Z,96351.13
2023-01-17T23:05:22.876Z,96355.13
2023-01-17T23:07:50.775Z,96345.25
2023-01-17T23:10:37.385Z,96347.16
2023-01-17T23:13:04.049Z,96354.91
2023-01-17T23:15:49.237Z,96350.56
2023-01-17T23:18:34.481Z,96346.09
2023-01-17T23:21:01.150Z,96341.84
2023-01-17T23:23:27.867Z,96335.72
2023-01-17T23:26:00.265Z,96337.47
2023-01-17T23:28:26.941Z,96346.81
2023-01-17T23:30:53.595Z,96344.84
2023-01-17T23:33:20.253Z,96343.66
2023-01-17T23:35:46.960Z,96332.13
2023-01-17T23:38:33.829Z,96328.50
2023-01-17T23:41:20.241Z,96329.53
2023-01-17T23:43:57.743Z,96319.50
2023-01-17T23:46:25.978Z,96320.28
2023-01-17T23:48:53.080Z,96317.47
2023-01-17T23:51:19.799Z,96320.78
2023-01-17T23:53:46.488Z,96323.72
2023-01-17T23:56:23.082Z,96317.19
2023-01-17T23:58:49.803Z,96318.59
